Time;durP1;ratioP1;P1;durP2;ratioP2;P2;SDS_P1;SDS_P2;PMS_P1;PMS_P2;Temp;Humidity;BMP_temperature;BMP_pressure;BME280_temperature;BME280_humidity;BME280_pressure;Samples;Min_cycle;Max_cycle;Signal;HPM_P1;HPM_P2
2023/07/20 00:02:13;;;;;;;0.20;0.20;;;;;;;17.44;76.45;97136.13;5060198;28;20041;-72
2023/07/20 00:04:41;;;;;;;0.20;0.20;;;;;;;17.42;76.91;97137.47;5043625;28;20049;-72
2023/07/20 00:07:09;;;;;;;0.10;0.10;;;;;;;17.49;76.79;97140.78;5061179;28;20037;-72
2023/07/20 00:09:37;;;;;;;0.20;0.20;;;;;;;17.45;76.86;97136.94;5055176;28;20120;-72
2023/07/20 00:12:07;;;;;;;0.30;0.30;;;;;;;17.39;76.91;97133.38;5056077;28;20125;-72
2023/07/20 00:14:35;;;;;;;0.20;0.20;;;;;;;17.37;77.42;97126.56;5053499;28;20048;-72
2023/07/20 00:17:03;;;;;;;0.30;0.30;;;;;;;17.31;77.68;97125.72;5051971;28;20553;-72
2023/07/20 00:19:32;;;;;;;0.25;0.25;;;;;;;17.36;77.28;97135.72;5054849;28;20045;-73
2023/07/20 00:22:00;;;;;;;0.20;0.20;;;;;;;17.37;77.39;97132.78;5056185;28;20044;-73
2023/07/20 00:24:27;;;;;;;0.30;0.30;;;;;;;17.34;77.97;97137.88;5053983;28;20119;-73
2023/07/20 00:26:55;;;;;;;0.20;0.20;;;;;;;17.18;78.49;97132.25;5047658;28;20107;-73
2023/07/20 00:29:24;;;;;;;0.30;0.30;;;;;;;17.34;77.33;97135.19;5047329;28;20494;-73
2023/07/20 00:31:52;;;;;;;0.30;0.30;;;;;;;17.48;76.76;97136.44;5038284;28;20477;-73
2023/07/20 00:34:20;;;;;;;0.28;0.28;;;;;;;17.40;76.02;97129.59;5033222;28;20052;-73
2023/07/20 00:36:48;;;;;;;0.28;0.28;;;;;;;17.23;76.74;97132.31;5042212;28;20048;-72
2023/07/20 00:39:16;;;;;;;0.10;0.10;;;;;;;17.22;77.36;97133.41;5037688;28;20403;-72
2023/07/20 00:41:44;;;;;;;0.45;0.45;;;;;;;17.44;76.66;97127.22;5033686;28;20473;-72
2023/07/20 00:44:12;;;;;;;0.30;0.30;;;;;;;17.46;76.58;97130.47;5030099;28;20080;-73
2023/07/20 00:46:43;;;;;;;0.20;0.20;;;;;;;17.33;77.39;97134.38;5051148;28;20505;-74
2023/07/20 00:49:11;;;;;;;0.22;0.22;;;;;;;17.32;77.42;97138.13;5047192;28;20143;-72
2023/07/20 00:51:39;;;;;;;0.30;0.30;;;;;;;17.22;78.01;97138.81;5041448;28;20057;-73
2023/07/20 00:54:09;;;;;;;0.22;0.22;;;;;;;17.23;78.01;97134.22;5045904;28;20087;-73
2023/07/20 00:56:36;;;;;;;0.20;0.20;;;;;;;17.14;78.46;97128.41;5041425;28;20080;-73
2023/07/20 00:59:05;;;;;;;0.32;0.32;;;;;;;17.08;78.63;97134.81;5048005;28;20556;-72
2023/07/20 01:01:35;;;;;;;0.22;0.22;;;;;;;17.11;78.85;97126.25;5051067;28;20189;-72
2023/07/20 01:04:04;;;;;;;0.20;0.20;;;;;;;17.09;78.21;97122.16;5048749;28;20087;-71
2023/07/20 01:06:37;;;;;;;0.20;0.20;;;;;;;17.10;78.04;97131.88;5053608;28;20044;-72
2023/07/20 01:09:12;;;;;;;0.28;0.28;;;;;;;17.12;77.90;97132.44;5041317;28;20140;-72
2023/07/20 01:11:44;;;;;;;0.30;0.30;;;;;;;17.13;77.66;97120.59;5053607;28;20080;-71
2023/07/20 01:14:13;;;;;;;0.20;0.20;;;;;;;17.01;78.57;97122.56;5033739;28;20087;-70
2023/07/20 01:16:40;;;;;;;0.20;0.20;;;;;;;16.90;78.48;97128.88;5036151;28;20065;-71
2023/07/20 01:19:09;;;;;;;0.28;0.28;;;;;;;16.83;78.90;97129.03;5043105;28;20052;-71
2023/07/20 01:21:42;;;;;;;0.40;0.40;;;;;;;16.83;78.97;97129.03;5041475;28;20160;-72
2023/07/20 01:24:38;;;;;;;0.20;0.20;;;;;;;16.84;78.94;97125.25;5044936;28;20037;-72
2023/07/20 01:27:35;;;;;;;0.38;0.38;;;;;;;17.01;78.19;97117.19;5042736;28;20438;-72
2023/07/20 01:30:26;;;;;;;0.25;0.25;;;;;;;16.93;78.47;97117.56;5015888;28;20056;-72
2023/07/20 01:32:56;;;;;;;0.20;0.20;;;;;;;16.87;78.30;97114.00;5044436;28;20076;-72
2023/07/20 01:35:28;;;;;;;0.30;0.30;;;;;;;16.95;77.96;97110.88;5035452;28;20072;-71
2023/07/20 01:37:57;;;;;;;0.20;0.20;;;;;;;16.95;77.93;97110.06;5050871;28;20119;-72
2023/07/20 01:40:26;;;;;;;0.40;0.40;;;;;;;16.95;77.88;97112.75;5056443;28;20037;-72
2023/07/20 01:42:54;;;;;;;0.10;0.10;;;;;;;16.81;77.89;97115.00;5028398;28;20474;-72
2023/07/20 01:45:22;;;;;;;0.28;0.28;;;;;;;16.73;78.49;97118.91;5044137;28;20076;-73
2023/07/20 01:47:49;;;;;;;0.35;0.35;;;;;;;16.64;78.89;97116.84;5047408;28;20033;-73
2023/07/20 01:50:19;;;;;;;0.30;0.30;;;;;;;16.57;79.16;97129.66;5054855;28;20039;-73
2023/07/20 01:52:46;;;;;;;0.10;0.10;;;;;;;16.55;79.15;97124.50;5046707;28;20416;-72
2023/07/20 01:55:14;;;;;;;0.30;0.30;;;;;;;16.32;79.78;97125.44;5050641;28;20051;-73
2023/07/20 01:57:42;;;;;;;0.20;0.20;;;;;;;16.29;79.72;97128.66;5057744;28;20124;-72
2023/07/20 02:00:12;;;;;;;0.20;0.20;;;;;;;16.10;80.88;97121.81;5047883;28;20123;-71
2023/07/20 02:02:42;;;;;;;;;;;;;;;16.25;79.88;97129.38;5065657;28;20041;-72
2023/07/20 02:05:10;;;;;;;0.25;0.25;;;;;;;16.39;79.13;97128.81;5056589;28;20446;-71
2023/07/20 02:07:39;;;;;;;0.22;0.22;;;;;;;16.45;78.87;97129.72;5059017;28;20360;-71
2023/07/20 02:10:08;;;;;;;0.30;0.30;;;;;;;16.12;79.69;97136.69;5059847;28;20055;-71
2023/07/20 02:12:35;;;;;;;0.20;0.20;;;;;;;16.19;79.72;97127.66;5058810;28;20144;-72
2023/07/20 02:15:04;;;;;;;0.40;0.40;;;;;;;16.26;79.14;97131.81;5047349;28;20033;-72
2023/07/20 02:17:32;;;;;;;0.30;0.30;;;;;;;16.52;78.31;97127.69;5043353;28;20461;-72
2023/07/20 02:19:59;;;;;;;0.20;0.20;;;;;;;16.41;78.21;97129.38;5044612;28;20044;-72
2023/07/20 02:22:27;;;;;;;0.30;0.30;;;;;;;16.41;78.36;97123.16;5061886;28;20120;-72
2023/07/20 02:24:56;;;;;;;0.40;0.40;;;;;;;16.44;77.89;97126.22;5044703;28;20072;-72
2023/07/20 02:27:24;;;;;;;0.30;0.30;;;;;;;16.38;78.30;97131.75;5053270;28;20468;-72
2023/07/20 02:29:52;;;;;;;0.25;0.25;;;;;;;16.38;78.54;97129.06;5050269;28;20549;-72
2023/07/20 02:32:19;;;;;;;0.30;0.30;;;;;;;16.48;78.21;97131.94;5057455;28;20040;-72
2023/07/20 02:34:48;;;;;;;0.30;0.30;;;;;;;16.39;78.16;97131.53;5050583;28;20059;-72
2023/07/20 02:37:17;;;;;;;0.40;0.40;;;;;;;16.37;78.31;97133.63;5035764;28;20504;-72
2023/07/20 02:39:45;;;;;;;0.30;0.30;;;;;;;16.43;78.32;97132.66;5042839;28;20091;-72
2023/07/20 02:42:14;;;;;;;0.30;0.30;;;;;;;16.52;78.11;97131.19;5050991;28;20049;-72
2023/07/20 02:44:42;;;;;;;0.38;0.38;;;;;;;16.54;78.01;97133.66;5039264;28;20051;-72
2023/07/20 02:47:10;;;;;;;0.30;0.30;;;;;;;16.73;77.09;97128.84;5040269;28;20498;-72
2023/07/20 02:49:37;;;;;;;0.30;0.30;;;;;;;16.68;76.94;97128.78;5052192;28;20045;-71
2023/07/20 02:52:06;;;;;;;0.20;0.20;;;;;;;16.44;77.81;97133.47;5044064;28;20136;-71
2023/07/20 02:54:33;;;;;;;0.30;0.30;;;;;;;16.49;77.94;97133.56;5043197;28;20048;-71
2023/07/20 02:57:01;;;;;;;0.30;0.30;;;;;;;16.41;78.14;97134.75;5049050;28;20037;-72
2023/07/20 02:59:30;;;;;;;0.25;0.25;;;;;;;16.45;78.16;97140.50;5040679;28;20042;-72
2023/07/20 03:01:58;;;;;;;0.13;0.13;;;;;;;16.39;78.01;97142.28;5034669;28;20045;-71
2023/07/20 03:04:27;;;;;;;0.10;0.10;;;;;;;16.49;77.65;97150.56;5035738;28;20171;-71
2023/07/20 03:06:54;;;;;;;0.20;0.20;;;;;;;16.55;77.38;97148.75;5049390;28;20048;-71
2023/07/20 03:09:22;;;;;;;0.30;0.30;;;;;;;16.46;77.51;97148.34;5045399;28;20061;-71
2023/07/20 03:11:50;;;;;;;0.25;0.25;;;;;;;16.59;77.14;97143.69;5061399;28;20475;-71
2023/07/20 03:14:18;;;;;;;0.30;0.30;;;;;;;16.40;77.79;97151.97;5029858;28;20041;-72
2023/07/20 03:16:47;;;;;;;0.20;0.20;;;;;;;16.46;78.10;97155.59;5037864;28;20103;-72
2023/07/20 03:19:15;;;;;;;0.22;0.22;;;;;;;16.52;77.77;97160.00;5052348;28;20079;-72
2023/07/20 03:21:43;;;;;;;0.20;0.20;;;;;;;16.68;76.86;97163.84;5062885;28;20045;-73
2023/07/20 03:24:11;;;;;;;0.30;0.30;;;;;;;16.75;76.38;97169.88;5050501;28;20127;-72
2023/07/20 03:26:39;;;;;;;0.25;0.25;;;;;;;16.80;76.07;97170.78;5048820;28;20045;-72
2023/07/20 03:29:08;;;;;;;0.28;0.28;;;;;;;16.61;76.89;97169.31;5051488;28;20056;-72
2023/07/20 03:31:36;;;;;;;0.28;0.28;;;;;;;16.54;77.06;97163.28;5042872;28;20102;-72
2023/07/20 03:34:06;;;;;;;0.40;0.40;;;;;;;16.37;78.08;97165.97;5051036;28;20049;-72
2023/07/20 03:36:33;;;;;;;0.30;0.30;;;;;;;16.30;78.33;97173.34;5047926;28;20044;-72
2023/07/20 03:39:02;;;;;;;0.20;0.20;;;;;;;16.59;77.58;97173.34;5042513;28;20069;-72
2023/07/20 03:41:30;;;;;;;0.28;0.28;;;;;;;16.76;76.29;97172.31;5049712;28;20051;-73
2023/07/20 03:43:57;;;;;;;0.32;0.32;;;;;;;16.55;77.28;97174.88;5046821;28;20056;-72
2023/07/20 03:46:25;;;;;;;0.25;0.25;;;;;;;16.17;78.51;97175.53;5051017;28;20120;-72
2023/07/20 03:48:53;;;;;;;0.43;0.43;;;;;;;16.05;79.15;97173.72;5035684;28;20128;-72
2023/07/20 03:51:22;;;;;;;0.30;0.30;;;;;;;16.03;79.15;97175.00;5037256;28;20127;-72
2023/07/20 03:53:50;;;;;;;0.30;0.30;;;;;;;16.00;79.12;97175.47;5034336;28;20457;-73
2023/07/20 03:56:18;;;;;;;0.22;0.22;;;;;;;15.95;79.45;97176.19;5049554;28;20048;-73
2023/07/20 03:58:45;;;;;;;0.30;0.30;;;;;;;15.99;79.05;97169.25;5041512;28;20136;-73
2023/07/20 04:01:13;;;;;;;0.32;0.32;;;;;;;16.06;78.82;97186.13;5048533;28;20049;-73
2023/07/20 04:03:42;;;;;;;0.30;0.30;;;;;;;16.15;78.55;97173.91;5041472;28;20048;-74
2023/07/20 04:06:14;;;;;;;0.25;0.25;;;;;;;16.13;78.51;97164.41;5036498;28;20063;-73
2023/07/20 04:08:43;;;;;;;0.32;0.32;;;;;;;16.12;78.40;97177.06;5033630;28;20462;-73
2023/07/20 04:11:10;;;;;;;0.40;0.40;;;;;;;16.15;78.21;97176.59;5047247;28;20053;-72
2023/07/20 04:13:38;;;;;;;0.40;0.40;;;;;;;16.13;78.25;97180.56;5042062;28;20052;-73
2023/07/20 04:16:06;;;;;;;0.38;0.38;;;;;;;16.17;78.20;97173.66;5047271;28;20132;-72
2023/07/20 04:18:34;;;;;;;0.47;0.47;;;;;;;16.25;77.88;97181.34;5051157;28;20081;-74
2023/07/20 04:21:01;;;;;;;0.20;0.20;;;;;;;16.17;77.85;97173.66;5045646;28;20042;-72
2023/07/20 04:23:29;;;;;;;0.20;0.20;;;;;;;16.15;78.02;97170.38;5035841;28;20032;-72
2023/07/20 04:25:58;;;;;;;0.25;0.25;;;;;;;16.18;77.94;97177.19;5045812;28;20063;-72
2023/07/20 04:28:26;;;;;;;0.03;0.03;;;;;;;16.26;78.26;97183.00;5043715;28;20401;-72
2023/07/20 04:30:54;;;;;;;0.20;0.20;;;;;;;16.24;78.28;97176.19;5041894;28;20087;-72
2023/07/20 04:33:22;;;;;;;0.30;0.30;;;;;;;16.20;78.11;97183.94;5038757;28;20052;-72
2023/07/20 04:35:52;;;;;;;0.32;0.32;;;;;;;16.21;78.14;97179.38;5026306;28;20045;-72
2023/07/20 04:38:32;;;;;;;0.25;0.25;;;;;;;16.36;77.81;97177.78;5046233;28;20037;-72
2023/07/20 04:41:19;;;;;;;0.30;0.30;;;;;;;16.35;77.81;97183.41;5039659;28;20041;-72
2023/07/20 04:43:49;;;;;;;0.17;0.17;;;;;;;16.36;77.75;97180.47;5038524;28;20087;-72
2023/07/20 04:46:24;;;;;;;0.30;0.30;;;;;;;16.33;77.67;97186.34;5037662;28;20053;-72
2023/07/20 04:48:54;;;;;;;0.20;0.20;;;;;;;16.32;77.52;97184.72;5084719;23;20078;-71
2023/07/20 04:51:22;;;;;;;0.22;0.22;;;;;;;16.24;77.57;97185.09;5072517;28;20037;-72
2023/07/20 04:53:53;;;;;;;0.32;0.32;;;;;;;16.23;77.91;97179.94;5071420;28;20126;-72
2023/07/20 04:56:23;;;;;;;0.30;0.30;;;;;;;16.29;77.20;97189.78;5070623;28;20072;-72
2023/07/20 04:58:53;;;;;;;0.30;0.30;;;;;;;16.31;77.53;97188.47;5071763;28;20036;-72
2023/07/20 05:01:21;;;;;;;0.25;0.25;;;;;;;16.32;77.48;97198.19;5071869;28;20093;-72
2023/07/20 05:03:49;;;;;;;0.20;0.20;;;;;;;16.41;77.17;97196.72;5071574;28;20421;-72
2023/07/20 05:06:17;;;;;;;0.20;0.20;;;;;;;16.46;77.09;97204.91;5071532;28;20052;-72
2023/07/20 05:08:45;;;;;;;0.22;0.22;;;;;;;16.50;77.16;97205.25;5070844;28;20066;-72
2023/07/20 05:11:13;;;;;;;0.22;0.22;;;;;;;16.66;76.84;97200.97;5072313;28;20036;-72
2023/07/20 05:13:42;;;;;;;0.30;0.30;;;;;;;16.70;76.32;97199.44;5065619;28;20049;-72
2023/07/20 05:16:10;;;;;;;0.22;0.22;;;;;;;16.80;75.70;97205.84;5070616;28;20052;-73
2023/07/20 05:18:38;;;;;;;0.28;0.28;;;;;;;16.65;76.29;97199.34;5071896;28;20146;-73
2023/07/20 05:21:06;;;;;;;0.30;0.30;;;;;;;16.73;76.08;97204.31;5071482;28;20047;-74
2023/07/20 05:23:34;;;;;;;0.40;0.40;;;;;;;16.77;75.62;97213.56;5069513;28;20546;-72
2023/07/20 05:26:02;;;;;;;0.30;0.30;;;;;;;16.63;76.20;97209.53;5070212;28;20089;-73
2023/07/20 05:28:30;;;;;;;0.30;0.30;;;;;;;16.64;76.56;97203.91;5068767;28;20090;-74
2023/07/20 05:30:59;;;;;;;0.30;0.30;;;;;;;16.57;77.00;97205.09;5093571;28;20054;-72
2023/07/20 05:33:27;;;;;;;0.30;0.30;;;;;;;16.69;76.79;97209.41;5091591;28;20529;-71
2023/07/20 05:35:55;;;;;;;0.30;0.30;;;;;;;16.77;76.29;97214.41;5091987;28;20040;-72
2023/07/20 05:38:22;;;;;;;0.25;0.25;;;;;;;16.79;75.58;97214.16;5090633;28;20048;-75
2023/07/20 05:40:50;;;;;;;0.20;0.20;;;;;;;16.73;75.91;97210.53;5092380;28;20117;-73
2023/07/20 05:43:18;;;;;;;0.30;0.30;;;;;;;16.95;75.07;97218.72;5089339;28;20416;-72
2023/07/20 05:45:47;;;;;;;0.20;0.20;;;;;;;16.92;74.90;97224.63;5092518;28;20044;-71
2023/07/20 05:48:16;;;;;;;0.20;0.20;;;;;;;16.99;74.79;97219.06;5092321;28;20119;-72
2023/07/20 05:50:45;;;;;;;0.30;0.30;;;;;;;17.10;73.67;97220.88;5092015;28;20068;-72
2023/07/20 05:53:12;;;;;;;0.30;0.30;;;;;;;17.08;73.53;97223.81;5091676;28;20048;-73
2023/07/20 05:55:40;;;;;;;0.13;0.13;;;;;;;17.07;73.92;97218.66;5091653;28;20411;-73
2023/07/20 05:58:08;;;;;;;0.40;0.40;;;;;;;16.99;74.58;97227.97;5091498;28;20123;-74
2023/07/20 06:00:36;;;;;;;0.30;0.30;;;;;;;16.94;74.72;97224.38;5091320;28;20040;-72
2023/07/20 06:03:03;;;;;;;0.20;0.20;;;;;;;16.92;74.73;97223.81;5092594;28;20130;-74
2023/07/20 06:05:33;;;;;;;0.30;0.30;;;;;;;16.84;75.38;97220.44;5092632;28;20044;-73
2023/07/20 06:08:01;;;;;;;0.22;0.22;;;;;;;16.93;75.23;97215.47;5091521;28;20051;-73
2023/07/20 06:10:28;;;;;;;0.35;0.35;;;;;;;16.97;75.01;97222.00;5089287;28;20040;-73
2023/07/20 06:12:56;;;;;;;0.25;0.25;;;;;;;17.07;74.59;97219.47;5094940;28;20075;-73
2023/07/20 06:15:29;;;;;;;0.32;0.32;;;;;;;17.22;74.69;97218.91;5093742;28;20044;-74
2023/07/20 06:17:57;;;;;;;0.22;0.22;;;;;;;17.29;74.24;97213.34;5091573;28;20062;-72
2023/07/20 06:20:26;;;;;;;0.20;0.20;;;;;;;17.36;73.66;97220.19;5091547;28;20040;-73
2023/07/20 06:22:55;;;;;;;0.20;0.20;;;;;;;17.47;73.44;97219.28;5074639;28;20412;-73
2023/07/20 06:25:23;;;;;;;0.20;0.20;;;;;;;17.46;72.95;97212.25;5091374;28;20040;-71
2023/07/20 06:27:51;;;;;;;0.30;0.30;;;;;;;17.55;73.02;97215.34;5088087;28;20052;-73
2023/07/20 06:30:19;;;;;;;0.30;0.30;;;;;;;17.67;72.80;97220.66;5092571;28;20038;-73
2023/07/20 06:32:47;;;;;;;0.22;0.22;;;;;;;17.67;72.52;97215.25;5090829;28;20097;-73
2023/07/20 06:35:15;;;;;;;0.22;0.22;;;;;;;17.73;73.19;97219.69;5091857;28;20058;-73
2023/07/20 06:37:43;;;;;;;0.20;0.20;;;;;;;17.73;72.50;97207.00;5092231;28;20044;-73
2023/07/20 06:40:13;;;;;;;0.50;0.50;;;;;;;17.72;72.47;97210.78;5091698;28;20123;-73
2023/07/20 06:42:43;;;;;;;0.20;0.20;;;;;;;17.80;72.70;97209.50;5104247;28;20611;-73
2023/07/20 06:45:14;;;;;;;0.35;0.35;;;;;;;17.70;71.73;97214.78;5098197;28;20035;-72
2023/07/20 06:47:42;;;;;;;0.30;0.30;;;;;;;17.86;72.60;97213.91;5092395;28;20053;-73
2023/07/20 06:50:11;;;;;;;0.25;0.25;;;;;;;18.03;71.84;97213.88;5088459;28;20051;-72
2023/07/20 06:52:44;;;;;;;0.32;0.32;;;;;;;18.22;71.59;97215.16;5073006;28;20044;-72
2023/07/20 06:55:13;;;;;;;0.20;0.20;;;;;;;18.33;69.76;97223.16;5073707;28;20036;-71
2023/07/20 06:57:41;;;;;;;0.20;0.20;;;;;;;18.44;70.03;97213.25;5089467;28;20458;-72
2023/07/20 07:00:15;;;;;;;0.20;0.20;;;;;;;18.57;68.87;97215.59;5091863;28;20040;-71
2023/07/20 07:02:42;;;;;;;0.10;0.10;;;;;;;18.62;68.85;97218.34;5091634;28;20403;-73
2023/07/20 07:05:13;;;;;;;0.10;0.10;;;;;;;18.24;69.84;97218.44;5088742;28;21106;-73
2023/07/20 07:07:44;;;;;;;0.20;0.20;;;;;;;18.27;68.58;97213.34;5091423;28;20055;-73
2023/07/20 07:10:13;;;;;;;0.32;0.32;;;;;;;18.43;65.49;97218.91;5090276;28;20036;-73
2023/07/20 07:12:41;;;;;;;0.25;0.25;;;;;;;18.42;65.12;97210.00;5090624;28;20493;-73
2023/07/20 07:15:10;;;;;;;0.30;0.30;;;;;;;18.52;63.87;97212.81;5091591;28;20082;-74
2023/07/20 07:17:39;;;;;;;0.30;0.30;;;;;;;18.59;63.78;97205.31;5091080;28;20476;-73
2023/07/20 07:20:08;;;;;;;0.20;0.20;;;;;;;18.75;62.96;97213.59;5091648;28;20113;-72
2023/07/20 07:22:48;;;;;;;0.30;0.30;;;;;;;18.86;63.92;97213.44;5095092;28;20047;-72
2023/07/20 07:25:23;;;;;;;0.30;0.30;;;;;;;18.80;63.56;97214.44;5095816;28;20048;-72
2023/07/20 07:27:52;;;;;;;0.20;0.20;;;;;;;18.93;62.78;97216.75;5094955;28;20044;-73
2023/07/20 07:30:20;;;;;;;0.13;0.13;;;;;;;18.89;62.46;97222.94;5074645;28;20055;-73
2023/07/20 07:32:48;;;;;;;0.30;0.30;;;;;;;19.01;62.42;97213.56;5090090;28;20051;-72
2023/07/20 07:35:16;;;;;;;0.30;0.30;;;;;;;18.98;61.81;97222.22;5090014;28;20504;-73
2023/07/20 07:37:46;;;;;;;0.25;0.25;;;;;;;18.98;61.83;97216.00;5089790;28;20048;-74
2023/07/20 07:40:34;;;;;;;0.13;0.13;;;;;;;18.93;60.90;97213.22;5089388;28;20400;-74
2023/07/20 07:43:02;;;;;;;0.20;0.20;;;;;;;19.06;61.20;97221.75;5091321;28;20051;-73
2023/07/20 07:45:30;;;;;;;0.22;0.22;;;;;;;19.01;61.23;97220.84;5090901;28;20449;-73
2023/07/20 07:47:58;;;;;;;0.20;0.20;;;;;;;19.10;60.62;97216.63;5090239;28;20036;-72
2023/07/20 07:50:27;;;;;;;0.20;0.20;;;;;;;19.24;59.93;97217.00;5091002;28;20043;-74
2023/07/20 07:52:55;;;;;;;0.22;0.22;;;;;;;19.39;60.08;97217.13;5071624;28;20048;-74
2023/07/20 07:55:22;;;;;;;0.32;0.32;;;;;;;19.26;59.82;97221.06;5072095;28;20109;-73
2023/07/20 07:57:51;;;;;;;0.00;0.00;;;;;;;19.34;58.88;97214.38;5090376;28;20111;-73
2023/07/20 08:00:20;;;;;;;0.32;0.32;;;;;;;19.52;58.27;97211.25;5089936;28;20036;-74
2023/07/20 08:02:48;;;;;;;0.20;0.20;;;;;;;19.73;58.03;97206.78;5091038;28;20055;-73
2023/07/20 08:05:16;;;;;;;0.20;0.20;;;;;;;19.60;57.88;97210.78;5089365;28;20032;-73
2023/07/20 08:07:43;;;;;;;0.15;0.15;;;;;;;19.60;57.55;97207.28;5089923;28;20123;-74
2023/07/20 08:10:11;;;;;;;0.30;0.30;;;;;;;19.83;56.08;97204.13;5088200;28;20040;-73
2023/07/20 08:12:39;;;;;;;0.25;0.25;;;;;;;19.75;56.89;97210.06;5072161;28;20068;-73
2023/07/20 08:15:09;;;;;;;0.10;0.10;;;;;;;19.71;57.44;97222.50;5088681;28;20461;-73
2023/07/20 08:17:36;;;;;;;0.10;0.10;;;;;;;19.91;57.59;97209.06;5089241;28;20086;-73
2023/07/20 08:20:06;;;;;;;0.25;0.25;;;;;;;19.98;57.29;97209.63;5087538;28;20090;-74
2023/07/20 08:22:34;;;;;;;0.47;0.47;;;;;;;20.17;57.15;97215.41;5089489;28;20032;-74
2023/07/20 08:25:02;;;;;;;0.20;0.20;;;;;;;20.24;56.42;97216.00;5089038;28;20143;-73
2023/07/20 08:27:30;;;;;;;0.30;0.30;;;;;;;20.06;56.73;97211.00;5089627;28;20111;-74
2023/07/20 08:29:57;;;;;;;0.20;0.20;;;;;;;19.72;54.79;97221.44;5089335;28;20044;-73
2023/07/20 08:32:28;;;;;;;0.22;0.22;;;;;;;19.60;56.38;97213.50;5089501;28;20135;-73
2023/07/20 08:34:56;;;;;;;0.20;0.20;;;;;;;19.47;57.18;97218.53;5089099;28;20047;-73
2023/07/20 08:37:24;;;;;;;0.20;0.20;;;;;;;19.78;56.16;97210.34;5088730;28;20446;-73
2023/07/20 08:39:52;;;;;;;0.20;0.20;;;;;;;20.22;55.53;97214.63;5071162;28;20056;-73
2023/07/20 08:42:19;;;;;;;0.10;0.10;;;;;;;20.52;52.92;97220.16;5088406;28;20028;-72
2023/07/20 08:44:49;;;;;;;0.20;0.20;;;;;;;20.43;52.51;97219.06;5088595;28;20128;-73
2023/07/20 08:47:17;;;;;;;0.20;0.20;;;;;;;20.41;53.41;97207.66;5086381;28;20046;-73
2023/07/20 08:49:49;;;;;;;0.20;0.20;;;;;;;20.49;52.29;97215.28;5088602;28;20044;-76
2023/07/20 08:52:17;;;;;;;0.20;0.20;;;;;;;20.39;52.41;97217.94;5089880;28;20036;-73
2023/07/20 08:54:45;;;;;;;0.20;0.20;;;;;;;20.30;52.67;97219.53;5088043;28;20044;-73
2023/07/20 08:57:15;;;;;;;0.10;0.10;;;;;;;20.42;53.34;97217.44;5088287;28;20516;-72
2023/07/20 08:59:44;;;;;;;0.20;0.20;;;;;;;20.71;52.21;97221.28;5088277;28;20123;-72
2023/07/20 09:02:17;;;;;;;0.20;0.20;;;;;;;21.02;51.27;97218.63;5090435;28;20118;-76
2023/07/20 09:04:47;;;;;;;0.20;0.20;;;;;;;20.97;51.22;97216.69;5093011;28;20043;-73
2023/07/20 09:07:16;;;;;;;0.20;0.20;;;;;;;20.88;52.01;97212.88;5091211;28;20123;-74
2023/07/20 09:09:44;;;;;;;0.30;0.30;;;;;;;20.85;52.36;97214.28;5074529;28;20051;-74
2023/07/20 09:12:15;;;;;;;0.20;0.20;;;;;;;20.83;53.57;97221.03;5094110;28;20040;-75
2023/07/20 09:14:43;;;;;;;0.28;0.28;;;;;;;20.73;53.13;97211.00;5092247;28;20044;-74
2023/07/20 09:17:14;;;;;;;0.25;0.25;;;;;;;20.77;53.19;97214.78;5093299;28;20044;-74
2023/07/20 09:19:48;;;;;;;0.20;0.20;;;;;;;20.74;53.07;97219.94;5093202;28;20085;-75
2023/07/20 09:22:17;;;;;;;0.30;0.30;;;;;;;20.31;53.37;97226.56;5093270;28;20063;-74
2023/07/20 09:24:45;;;;;;;0.17;0.17;;;;;;;20.11;54.24;97220.00;5091934;28;20090;-73
2023/07/20 09:27:13;;;;;;;0.30;0.30;;;;;;;20.16;53.76;97225.44;5093611;28;20052;-74
2023/07/20 09:29:50;;;;;;;0.20;0.20;;;;;;;20.05;52.89;97229.16;5092275;28;20143;-73
2023/07/20 09:32:20;;;;;;;0.30;0.30;;;;;;;20.08;52.54;97228.66;5092080;28;20040;-74
2023/07/20 09:34:53;;;;;;;0.20;0.20;;;;;;;20.10;53.04;97231.09;5091808;28;20047;-72
2023/07/20 09:37:22;;;;;;;0.30;0.30;;;;;;;20.10;53.16;97234.63;5092611;28;20098;-73
2023/07/20 09:39:52;;;;;;;0.28;0.28;;;;;;;20.17;54.35;97237.91;5074115;28;20059;-74
2023/07/20 09:42:25;;;;;;;0.10;0.10;;;;;;;20.15;54.79;97242.75;5092069;28;20047;-75
2023/07/20 09:44:56;;;;;;;0.20;0.20;;;;;;;20.07;55.83;97234.31;5093669;28;20028;-74
2023/07/20 09:47:24;;;;;;;0.20;0.20;;;;;;;20.26;56.85;97237.38;5092262;28;20123;-74
2023/07/20 09:50:00;;;;;;;0.20;0.20;;;;;;;20.51;57.11;97240.22;5093455;28;20119;-75
2023/07/20 09:52:32;;;;;;;0.17;0.17;;;;;;;20.66;55.60;97237.53;5091704;28;20516;-73
2023/07/20 09:55:04;;;;;;;0.20;0.20;;;;;;;20.39;54.86;97226.09;5092699;28;20520;-73
2023/07/20 09:57:32;;;;;;;0.20;0.20;;;;;;;20.87;52.16;97222.13;5092025;28;20090;-72
2023/07/20 10:00:01;;;;;;;0.20;0.20;;;;;;;21.13;52.08;97223.78;5092156;28;20042;-72
2023/07/20 10:02:34;;;;;;;0.03;0.03;;;;;;;20.72;52.04;97225.63;5092581;28;20416;-73
2023/07/20 10:05:05;;;;;;;0.20;0.20;;;;;;;21.08;53.56;97221.03;5091980;28;20036;-74
2023/07/20 10:07:35;;;;;;;0.20;0.20;;;;;;;21.27;50.40;97223.28;5092197;28;20123;-75
2023/07/20 10:10:05;;;;;;;0.20;0.20;;;;;;;20.98;50.19;97226.47;5091747;28;20044;-74
2023/07/20 10:12:34;;;;;;;0.10;0.10;;;;;;;20.83;51.06;97221.03;5092502;28;20036;-71
2023/07/20 10:15:14;;;;;;;0.20;0.20;;;;;;;21.04;52.02;97228.13;5091102;28;20043;-70
2023/07/20 10:17:49;;;;;;;0.13;0.13;;;;;;;21.08;50.13;97218.34;5093498;28;20036;-74
2023/07/20 10:20:21;;;;;;;0.20;0.20;;;;;;;21.08;50.25;97212.91;5093251;28;20044;-73
2023/07/20 10:22:50;;;;;;;0.20;0.20;;;;;;;21.31;48.23;97216.19;5073986;28;20048;-73
2023/07/20 10:25:19;;;;;;;0.20;0.20;;;;;;;21.46;48.20;97213.47;5093299;28;20028;-75
2023/07/20 10:27:48;;;;;;;0.30;0.30;;;;;;;21.26;48.40;97211.59;5092073;28;20070;-74
2023/07/20 10:30:16;;;;;;;0.10;0.10;;;;;;;21.17;47.52;97210.50;5091790;28;20510;-73
2023/07/20 10:32:44;;;;;;;0.20;0.20;;;;;;;20.94;48.06;97216.44;5091740;28;20051;-72
2023/07/20 10:35:16;;;;;;;0.10;0.10;;;;;;;20.93;49.88;97217.53;5094135;28;20044;-75
2023/07/20 10:37:53;;;;;;;0.13;0.13;;;;;;;20.76;51.18;97215.88;5094601;28;20040;-74
2023/07/20 10:40:30;;;;;;;0.20;0.20;;;;;;;20.73;51.44;97227.28;5074797;28;20098;-76
2023/07/20 10:43:02;;;;;;;0.28;0.28;;;;;;;20.53;52.12;97213.66;5092881;28;20553;-73
2023/07/20 10:45:36;;;;;;;;;;;;;;;20.60;52.21;97210.69;5091685;28;20047;-72
2023/07/20 10:48:05;;;;;;;0.30;0.30;;;;;;;20.65;53.34;97216.94;5104482;22;19920;-74
2023/07/20 10:50:34;;;;;;;0.32;0.32;;;;;;;20.62;54.56;97220.19;5053500;28;20044;-73
2023/07/20 10:53:11;;;;;;;0.10;0.10;;;;;;;20.81;54.61;97223.19;5072272;28;20032;-75
2023/07/20 10:55:39;;;;;;;0.20;0.20;;;;;;;20.98;53.67;97223.75;5072928;28;20493;-74
2023/07/20 10:58:08;;;;;;;0.20;0.20;;;;;;;20.59;54.69;97220.72;5073251;28;20036;-76
2023/07/20 11:00:36;;;;;;;0.20;0.20;;;;;;;20.59;55.37;97247.84;5049782;28;20548;-75
2023/07/20 11:03:04;;;;;;;0.30;0.30;;;;;;;19.40;64.68;97286.44;5053514;28;20039;-74
2023/07/20 11:05:36;;;;;;;0.22;0.22;;;;;;;18.83;66.12;97288.84;5071047;28;20036;-73
2023/07/20 11:08:07;;;;;;;0.20;0.20;;;;;;;18.46;67.99;97276.00;5069226;28;20045;-73
2023/07/20 11:10:35;;;;;;;0.20;0.20;;;;;;;18.27;62.55;97263.88;5070260;28;20049;-75
2023/07/20 11:13:34;;;;;;;0.30;0.30;;;;;;;18.42;63.67;97260.53;5069481;28;20123;-75
2023/07/20 11:16:05;;;;;;;0.20;0.20;;;;;;;18.60;63.69;97255.63;5008844;28;20148;-75
2023/07/20 11:18:35;;;;;;;0.13;0.13;;;;;;;18.56;64.33;97254.50;5057399;28;20140;-74
2023/07/20 11:21:03;;;;;;;0.13;0.13;;;;;;;18.62;65.14;97258.09;5073235;28;20455;-74
2023/07/20 11:23:32;;;;;;;0.35;0.35;;;;;;;18.53;65.33;97256.88;5071103;28;20500;-75
2023/07/20 11:26:02;;;;;;;0.20;0.20;;;;;;;18.81;65.94;97255.84;5069147;28;20100;-71
2023/07/20 11:28:31;;;;;;;0.10;0.10;;;;;;;19.06;65.31;97247.97;5056414;28;20071;-74
2023/07/20 11:30:58;;;;;;;0.20;0.20;;;;;;;19.17;63.86;97252.41;5072647;28;20037;-75
2023/07/20 11:33:27;;;;;;;0.22;0.22;;;;;;;19.41;61.30;97248.25;5070293;28;20037;-74
2023/07/20 11:35:55;;;;;;;0.30;0.30;;;;;;;19.57;61.63;97245.69;5070036;28;20064;-73
2023/07/20 11:38:23;;;;;;;0.22;0.22;;;;;;;19.70;61.98;97240.66;5072820;28;20040;-73
2023/07/20 11:40:52;;;;;;;0.20;0.20;;;;;;;19.94;60.91;97235.63;5054468;28;20509;-73
2023/07/20 11:43:23;;;;;;;0.10;0.10;;;;;;;20.13;60.91;97239.53;5069832;28;20048;-74
2023/07/20 11:45:50;;;;;;;0.28;0.28;;;;;;;20.34;62.71;97234.19;5069208;28;20051;-74